createdAt,value
2022-12-01T00:00:19.448Z,975.62
2022-12-01T00:01:19.433Z,975.60
2022-12-01T00:02:19.622Z,975.59
2022-12-01T00:03:19.591Z,975.56
2022-12-01T00:04:19.399Z,975.58
2022-12-01T00:05:19.374Z,975.58
2022-12-01T00:06:19.354Z,975.62
2022-12-01T00:07:19.414Z,975.60
2022-12-01T00:08:19.322Z,975.56
2022-12-01T00:09:20.257Z,975.57
2022-12-01T00:10:19.289Z,975.61
2022-12-01T00:11:19.267Z,975.58
2022-12-01T00:12:19.252Z,975.62
2022-12-01T00:13:19.236Z,975.59
2022-12-01T00:14:19.218Z,975.58
2022-12-01T00:15:19.200Z,975.57
2022-12-01T00:16:19.357Z,975.63
2022-12-01T00:17:19.168Z,975.62
2022-12-01T00:18:19.165Z,975.58
2022-12-01T00:19:19.134Z,975.54
2022-12-01T00:20:19.139Z,975.56
2022-12-01T00:21:19.102Z,975.52
2022-12-01T00:22:19.091Z,975.55
2022-12-01T00:23:19.064Z,975.56
2022-12-01T00:24:19.056Z,975.53
2022-12-01T00:25:19.032Z,975.51
2022-12-01T00:26:19.018Z,975.51
2022-12-01T00:27:18.998Z,975.54
2022-12-01T00:28:18.986Z,975.48
2022-12-01T00:29:18.965Z,975.55
2022-12-01T00:30:18.952Z,975.49
2022-12-01T00:31:18.988Z,975.44
2022-12-01T00:32:18.921Z,975.49
2022-12-01T00:33:18.911Z,975.50
2022-12-01T00:34:18.886Z,975.51
2022-12-01T00:35:18.871Z,975.51
2022-12-01T00:36:18.880Z,975.46
2022-12-01T00:37:18.833Z,975.53
2022-12-01T00:38:18.819Z,975.53
2022-12-01T00:39:18.800Z,975.52
2022-12-01T00:40:18.786Z,975.49
2022-12-01T00:41:18.769Z,975.59
2022-12-01T00:42:18.753Z,975.54
2022-12-01T00:43:18.836Z,975.50
2022-12-01T00:44:18.722Z,975.51
2022-12-01T00:45:18.702Z,975.48
2022-12-01T00:46:18.740Z,975.56
2022-12-01T00:47:18.666Z,975.55
2022-12-01T00:48:18.655Z,975.47
2022-12-01T00:49:18.637Z,975.48
2022-12-01T00:50:18.624Z,975.47
2022-12-01T00:51:18.609Z,975.48
2022-12-01T00:52:18.612Z,975.51
2022-12-01T00:53:18.567Z,975.50
2022-12-01T00:54:18.556Z,975.54
2022-12-01T00:55:18.534Z,975.63
2022-12-01T00:56:18.519Z,975.56
2022-12-01T00:57:18.499Z,975.56
2022-12-01T00:58:18.509Z,975.53
2022-12-01T00:59:18.491Z,975.56
2022-12-01T01:00:18.452Z,975.60
2022-12-01T01:01:18.519Z,975.65
2022-12-01T01:02:18.501Z,975.58
2022-12-01T01:03:18.399Z,975.57
2022-12-01T01:04:18.388Z,975.63
2022-12-01T01:05:18.368Z,975.71
2022-12-01T01:06:18.351Z,975.64
2022-12-01T01:07:18.333Z,975.61
2022-12-01T01:08:18.342Z,975.67
2022-12-01T01:09:18.299Z,975.67
2022-12-01T01:10:18.286Z,975.67
2022-12-01T01:11:18.264Z,975.66
2022-12-01T01:12:18.255Z,975.69
2022-12-01T01:13:18.232Z,975.68
2022-12-01T01:14:18.219Z,975.68
2022-12-01T01:15:18.200Z,975.66
2022-12-01T01:16:18.261Z,975.72
2022-12-01T01:17:18.163Z,975.68
2022-12-01T01:18:18.149Z,975.65
2022-12-01T01:19:18.131Z,975.68
2022-12-01T01:20:18.117Z,975.65
2022-12-01T01:21:18.096Z,975.64
2022-12-01T01:22:18.083Z,975.63
2022-12-01T01:23:18.063Z,975.67
2022-12-01T01:24:18.073Z,975.71
2022-12-01T01:25:18.029Z,975.67
2022-12-01T01:26:18.015Z,975.66
2022-12-01T01:27:17.996Z,975.60
2022-12-01T01:28:17.982Z,975.64
2022-12-01T01:29:17.960Z,975.64
2022-12-01T01:30:17.947Z,975.57
2022-12-01T01:31:18.057Z,975.55
2022-12-01T01:32:17.915Z,975.59
2022-12-01T01:33:17.895Z,975.61
2022-12-01T01:34:17.882Z,975.56
2022-12-01T01:35:17.867Z,975.62
2022-12-01T01:36:17.848Z,975.57
2022-12-01T01:37:17.837Z,975.61
2022-12-01T01:38:17.814Z,975.64
2022-12-01T01:39:17.794Z,975.66
2022-12-01T01:40:17.801Z,975.63
2022-12-01T01:41:17.760Z,975.67
2022-12-01T01:42:17.745Z,975.65
2022-12-01T01:43:17.726Z,975.67
2022-12-01T01:44:17.712Z,975.68
2022-12-01T01:45:17.693Z,975.70
2022-12-01T01:46:17.943Z,975.70
2022-12-01T01:47:17.660Z,975.70
2022-12-01T01:48:17.669Z,975.69
2022-12-01T01:49:17.678Z,975.67
2022-12-01T01:50:17.632Z,975.72
2022-12-01T01:51:17.611Z,975.68
2022-12-01T01:52:17.578Z,975.69
2022-12-01T01:53:17.559Z,975.74
2022-12-01T01:54:17.656Z,975.66
2022-12-01T01:55:17.524Z,975.70
2022-12-01T01:56:17.534Z,975.67
2022-12-01T01:57:17.490Z,975.63
2022-12-01T01:58:17.476Z,975.68
2022-12-01T01:59:17.460Z,975.67
2022-12-01T02:00:17.444Z,975.69
2022-12-01T02:01:17.494Z,975.70
2022-12-01T02:02:17.493Z,975.71
2022-12-01T02:03:17.395Z,975.70
2022-12-01T02:04:17.379Z,975.74
2022-12-01T02:05:17.357Z,975.66
2022-12-01T02:06:17.343Z,975.67
2022-12-01T02:07:17.323Z,975.65
2022-12-01T02:08:17.314Z,975.65
2022-12-01T02:09:17.289Z,975.59
2022-12-01T02:10:17.277Z,975.67
2022-12-01T02:11:17.258Z,975.62
2022-12-01T02:12:17.266Z,975.64
2022-12-01T02:13:17.223Z,975.61
2022-12-01T02:14:17.210Z,975.54
2022-12-01T02:15:17.190Z,975.63
2022-12-01T02:16:17.202Z,975.60
2022-12-01T02:17:17.156Z,975.58
2022-12-01T02:18:17.144Z,975.61
2022-12-01T02:19:17.123Z,975.56
2022-12-01T02:20:17.110Z,975.59
2022-12-01T02:21:17.092Z,975.60
2022-12-01T02:23:17.065Z,975.59
2022-12-01T02:24:17.041Z,975.66
2022-12-01T02:25:17.026Z,975.59
2022-12-01T02:26:17.007Z,975.60
2022-12-01T02:27:16.994Z,975.60
2022-12-01T02:28:16.998Z,975.55
2022-12-01T02:29:16.959Z,975.58
2022-12-01T02:30:16.939Z,975.59
2022-12-01T02:31:16.963Z,975.57
2022-12-01T02:32:16.908Z,975.50
2022-12-01T02:33:16.892Z,975.51
2022-12-01T02:34:16.872Z,975.51
2022-12-01T02:35:16.861Z,975.45
2022-12-01T02:36:16.852Z,975.46
2022-12-01T02:37:16.827Z,975.41
2022-12-01T02:38:16.806Z,975.45
2022-12-01T02:39:16.794Z,975.42
2022-12-01T02:40:16.775Z,975.42
2022-12-01T02:41:16.758Z,975.40
2022-12-01T02:42:16.742Z,975.42
2022-12-01T02:43:16.726Z,975.42
2022-12-01T02:44:16.729Z,975.46
2022-12-01T02:45:16.693Z,975.42
2022-12-01T02:46:16.766Z,975.39
2022-12-01T02:47:16.661Z,975.39
2022-12-01T02:48:16.640Z,975.40
2022-12-01T02:49:16.626Z,975.40
2022-12-01T02:50:16.608Z,975.41
2022-12-01T02:51:16.593Z,975.33
2022-12-01T02:52:16.576Z,975.40
2022-12-01T02:53:16.556Z,975.36
2022-12-01T02:54:16.543Z,975.43
2022-12-01T02:55:16.523Z,975.38
2022-12-01T02:56:16.510Z,975.41
2022-12-01T02:57:16.494Z,975.41
2022-12-01T02:58:16.476Z,975.49
2022-12-01T02:59:16.457Z,975.36
2022-12-01T03:00:16.466Z,975.43
2022-12-01T03:01:16.485Z,975.43
2022-12-01T03:02:16.452Z,975.42
2022-12-01T03:03:16.393Z,975.41
2022-12-01T03:04:16.375Z,975.47
2022-12-01T03:05:16.358Z,975.44
2022-12-01T03:06:16.341Z,975.44
2022-12-01T03:07:16.322Z,975.44
2022-12-01T03:08:16.308Z,975.46
2022-12-01T03:09:16.287Z,975.43
2022-12-01T03:10:16.276Z,975.42
2022-12-01T03:11:16.255Z,975.41
2022-12-01T03:12:16.248Z,975.40
2022-12-01T03:13:16.220Z,975.39
2022-12-01T03:14:16.207Z,975.39
2022-12-01T03:15:16.192Z,975.38
2022-12-01T03:16:16.325Z,975.37
2022-12-01T03:17:16.152Z,975.42
2022-12-01T03:18:16.140Z,975.36
2022-12-01T03:19:16.124Z,975.39
2022-12-01T03:20:16.107Z,975.39
2022-12-01T03:21:16.088Z,975.36
2022-12-01T03:22:16.073Z,975.39
2022-12-01T03:23:16.055Z,975.33
2022-12-01T03:24:16.042Z,975.34
2022-12-01T03:25:16.017Z,975.31
2022-12-01T03:26:16.005Z,975.33
2022-12-01T03:27:15.984Z,975.29
2022-12-01T03:28:23.174Z,975.29
2022-12-01T03:29:15.949Z,975.25
2022-12-01T03:30:15.953Z,975.28
2022-12-01T03:31:15.944Z,975.30
2022-12-01T03:32:15.921Z,975.25
2022-12-01T03:33:15.882Z,975.25
2022-12-01T03:34:15.869Z,975.34
2022-12-01T03:35:15.848Z,975.30
2022-12-01T03:36:15.834Z,975.30
2022-12-01T03:37:15.813Z,975.29
2022-12-01T03:38:15.801Z,975.28
2022-12-01T03:39:15.779Z,975.26
2022-12-01T03:40:15.766Z,975.34
2022-12-01T03:41:15.744Z,975.30
2022-12-01T03:42:15.736Z,975.32
2022-12-01T03:43:15.713Z,975.32
2022-12-01T03:44:15.698Z,975.37
2022-12-01T03:45:15.677Z,975.33
2022-12-01T03:46:15.717Z,975.40
2022-12-01T03:47:15.645Z,975.33
2022-12-01T03:48:15.648Z,975.28
2022-12-01T03:49:15.610Z,975.33
2022-12-01T03:50:15.594Z,975.34
2022-12-01T03:51:15.575Z,975.39
2022-12-01T03:52:15.563Z,975.37
2022-12-01T03:53:15.540Z,975.38
2022-12-01T03:54:15.526Z,975.47
2022-12-01T03:55:15.507Z,975.37
2022-12-01T03:56:15.494Z,975.39
2022-12-01T03:57:15.472Z,975.33
2022-12-01T03:58:15.459Z,975.32
2022-12-01T03:59:15.438Z,975.40
2022-12-01T04:00:15.427Z,975.34
2022-12-01T04:01:15.494Z,975.34
2022-12-01T04:02:15.389Z,975.33
2022-12-01T04:03:15.420Z,975.44
2022-12-01T04:04:15.380Z,975.33
2022-12-01T04:05:15.336Z,975.35
2022-12-01T04:06:15.321Z,975.39
2022-12-01T04:07:15.300Z,975.50
2022-12-01T04:08:15.293Z,975.30
2022-12-01T04:09:15.266Z,975.40
2022-12-01T04:10:15.250Z,975.35
2022-12-01T04:11:15.232Z,975.39
2022-12-01T04:12:15.218Z,975.39
2022-12-01T04:13:15.197Z,975.39
2022-12-01T04:14:15.183Z,975.38
2022-12-01T04:15:15.161Z,975.45
2022-12-01T04:16:15.275Z,975.39
2022-12-01T04:17:15.128Z,975.37
2022-12-01T04:18:15.114Z,975.55
2022-12-01T04:19:15.093Z,975.39
2022-12-01T04:20:15.100Z,975.34
2022-12-01T04:21:15.059Z,975.37
2022-12-01T04:22:15.045Z,975.39
2022-12-01T04:23:15.025Z,975.47
2022-12-01T04:24:15.011Z,975.38
2022-12-01T04:25:14.995Z,975.41
2022-12-01T04:26:16.008Z,975.46
2022-12-01T04:27:14.955Z,975.48
2022-12-01T04:28:14.947Z,975.41
2022-12-01T04:29:14.920Z,975.40
2022-12-01T04:30:14.911Z,975.40
2022-12-01T04:31:15.015Z,975.43
2022-12-01T04:32:14.872Z,975.42
2022-12-01T04:33:14.852Z,975.42
2022-12-01T04:34:14.840Z,975.43
2022-12-01T04:35:14.872Z,975.48
2022-12-01T04:36:14.825Z,975.55
2022-12-01T04:37:14.789Z,975.46
2022-12-01T04:39:14.751Z,975.51
2022-12-01T04:40:14.731Z,975.49
2022-12-01T04:41:14.716Z,975.44
2022-12-01T04:43:14.679Z,975.47
2022-12-01T04:44:14.666Z,975.43
2022-12-01T04:45:14.644Z,975.57
2022-12-01T04:46:14.654Z,975.51
2022-12-01T04:47:14.610Z,975.51
2022-12-01T04:48:14.596Z,975.53
2022-12-01T04:49:14.575Z,975.54
2022-12-01T04:50:14.561Z,975.52
2022-12-01T04:51:14.541Z,975.48
2022-12-01T04:52:14.551Z,975.51
2022-12-01T04:53:14.505Z,975.54
2022-12-01T04:54:14.492Z,975.53
2022-12-01T04:55:14.471Z,975.58
2022-12-01T04:56:14.508Z,975.57
2022-12-01T04:57:14.453Z,975.56
2022-12-01T04:58:14.422Z,975.61
2022-12-01T04:59:14.403Z,975.50
2022-12-01T05:00:14.390Z,975.60
2022-12-01T05:01:14.456Z,975.55
2022-12-01T05:02:14.498Z,975.56
2022-12-01T05:03:15.334Z,975.57
2022-12-01T05:04:14.319Z,975.57
2022-12-01T05:05:14.307Z,975.60
2022-12-01T05:06:14.286Z,975.63
2022-12-01T05:07:14.264Z,975.56
2022-12-01T05:08:14.272Z,975.61
2022-12-01T05:09:17.151Z,975.63
2022-12-01T05:10:14.221Z,975.59
2022-12-01T05:11:14.198Z,975.63
2022-12-01T05:12:14.181Z,975.59
2022-12-01T05:13:14.160Z,975.61
2022-12-01T05:14:14.146Z,975.62
2022-12-01T05:15:14.126Z,975.67
2022-12-01T05:16:14.182Z,975.65
2022-12-01T05:17:14.092Z,975.63
2022-12-01T05:18:14.125Z,975.62
2022-12-01T05:19:14.056Z,975.63
2022-12-01T05:20:14.043Z,975.65
2022-12-01T05:21:14.020Z,975.64
2022-12-01T05:22:14.008Z,975.70
2022-12-01T05:23:16.935Z,975.76
2022-12-01T05:24:13.996Z,975.70
2022-12-01T05:25:13.953Z,975.70
2022-12-01T05:26:13.939Z,975.68
2022-12-01T05:27:13.919Z,975.68
2022-12-01T05:28:13.904Z,975.66
2022-12-01T05:29:13.917Z,975.65
2022-12-01T05:30:13.868Z,975.66
2022-12-01T05:31:13.936Z,975.63
2022-12-01T05:32:13.834Z,975.63
2022-12-01T05:33:13.812Z,975.61
2022-12-01T05:34:13.801Z,975.65
2022-12-01T05:35:13.779Z,975.63
2022-12-01T05:36:13.766Z,975.73
2022-12-01T05:37:13.743Z,975.74
2022-12-01T05:38:13.729Z,975.70
2022-12-01T05:39:13.710Z,975.67
2022-12-01T05:40:13.713Z,975.61
2022-12-01T05:41:13.674Z,975.70
2022-12-01T05:42:13.659Z,975.62
2022-12-01T05:43:13.639Z,975.64
2022-12-01T05:44:13.624Z,975.59
2022-12-01T05:45:13.603Z,975.65
2022-12-01T05:46:13.647Z,975.69
2022-12-01T05:47:13.570Z,975.64
2022-12-01T05:48:13.555Z,975.59
2022-12-01T05:49:13.534Z,975.64
2022-12-01T05:50:13.520Z,975.65
2022-12-01T05:51:13.505Z,975.69
2022-12-01T05:52:13.486Z,975.66
2022-12-01T05:53:13.567Z,975.66
2022-12-01T05:54:13.457Z,975.65
2022-12-01T05:55:13.429Z,975.66
2022-12-01T05:56:13.433Z,975.70
2022-12-01T05:57:13.394Z,975.70
2022-12-01T05:58:13.380Z,975.69
2022-12-01T05:59:13.359Z,975.71
2022-12-01T06:00:13.346Z,975.70
2022-12-01T06:01:13.325Z,975.68
2022-12-01T06:02:13.338Z,975.66
2022-12-01T06:03:13.297Z,975.74
2022-12-01T06:04:13.345Z,975.70
2022-12-01T06:05:13.255Z,975.68
2022-12-01T06:06:13.247Z,975.76
2022-12-01T06:07:13.322Z,975.61
2022-12-01T06:08:13.209Z,975.63
2022-12-01T06:09:13.184Z,975.66
2022-12-01T06:10:13.172Z,975.66
2022-12-01T06:11:13.153Z,975.68
2022-12-01T06:12:13.160Z,975.66
2022-12-01T06:13:13.116Z,975.69
2022-12-01T06:14:13.102Z,975.69
2022-12-01T06:15:13.083Z,975.70
2022-12-01T06:16:13.135Z,975.74
2022-12-01T06:17:13.056Z,975.69
2022-12-01T06:18:13.033Z,975.70
2022-12-01T06:19:13.018Z,975.69
2022-12-01T06:20:13.007Z,975.74
2022-12-01T06:21:12.977Z,975.83
2022-12-01T06:22:12.963Z,975.78
2022-12-01T06:23:12.943Z,975.70
2022-12-01T06:24:12.933Z,975.73
2022-12-01T06:25:12.906Z,975.81
2022-12-01T06:26:12.893Z,975.82
2022-12-01T06:27:12.876Z,975.78
2022-12-01T06:28:12.876Z,975.81
2022-12-01T06:29:12.838Z,975.73
2022-12-01T06:30:12.823Z,975.78
2022-12-01T06:31:12.804Z,975.80
2022-12-01T06:32:12.788Z,975.71
2022-12-01T06:33:12.769Z,975.78
2022-12-01T06:34:12.754Z,975.79
2022-12-01T06:35:12.738Z,975.75
2022-12-01T06:36:12.723Z,975.74
2022-12-01T06:37:12.697Z,975.73
2022-12-01T06:38:12.683Z,975.76
2022-12-01T06:39:12.667Z,975.76
2022-12-01T06:40:12.664Z,975.76
2022-12-01T06:41:12.630Z,975.77
2022-12-01T06:42:12.668Z,975.86
2022-12-01T06:43:12.600Z,975.76
2022-12-01T06:44:12.602Z,975.84
2022-12-01T06:45:12.557Z,975.81
2022-12-01T06:46:12.585Z,975.90
2022-12-01T06:47:12.524Z,975.88
2022-12-01T06:48:12.509Z,975.89
2022-12-01T06:49:12.488Z,975.86
2022-12-01T06:50:12.478Z,975.81
2022-12-01T06:51:12.456Z,975.86
2022-12-01T06:52:12.442Z,975.84
2022-12-01T06:53:12.418Z,975.91
2022-12-01T06:54:12.407Z,975.87
2022-12-01T06:55:12.382Z,975.92
2022-12-01T06:56:12.369Z,975.97
2022-12-01T06:57:12.348Z,975.97
2022-12-01T06:58:12.335Z,975.95
2022-12-01T06:59:12.315Z,975.95
2022-12-01T07:00:12.325Z,975.95
2022-12-01T07:01:12.371Z,975.90
2022-12-01T07:02:12.343Z,975.99
2022-12-01T07:03:12.243Z,976.03
2022-12-01T07:04:12.230Z,976.00
2022-12-01T07:05:12.211Z,976.03
2022-12-01T07:06:12.196Z,976.01
2022-12-01T07:07:12.187Z,976.05
2022-12-01T07:08:12.266Z,975.97
2022-12-01T07:09:12.212Z,976.07
2022-12-01T07:10:12.285Z,976.14
2022-12-01T07:11:12.118Z,976.10
2022-12-01T07:12:12.216Z,976.05
2022-12-01T07:13:12.110Z,976.09
2022-12-01T07:14:12.052Z,976.09
2022-12-01T07:15:12.108Z,976.08
2022-12-01T07:16:12.118Z,976.02
2022-12-01T07:17:12.005Z,976.13
2022-12-01T07:18:11.983Z,976.10
2022-12-01T07:19:11.967Z,976.09
2022-12-01T07:20:11.957Z,976.10
2022-12-01T07:21:11.932Z,976.12
2022-12-01T07:22:11.911Z,976.08
2022-12-01T07:23:11.899Z,976.21
2022-12-01T07:24:11.880Z,976.15
2022-12-01T07:25:11.862Z,976.09
2022-12-01T07:26:11.844Z,976.07
2022-12-01T07:27:11.829Z,976.12
2022-12-01T07:28:11.808Z,976.09
2022-12-01T07:29:11.893Z,976.20
2022-12-01T07:30:11.772Z,976.06
2022-12-01T07:31:11.819Z,976.12
2022-12-01T07:32:11.763Z,976.16
2022-12-01T07:33:11.722Z,976.13
2022-12-01T07:34:11.703Z,976.17
2022-12-01T07:35:11.688Z,976.15
2022-12-01T07:36:11.670Z,976.11
2022-12-01T07:37:11.653Z,976.19
2022-12-01T07:38:11.633Z,976.17
2022-12-01T07:39:11.619Z,976.21
2022-12-01T07:40:11.598Z,976.35
2022-12-01T07:41:11.587Z,976.29
2022-12-01T07:42:11.567Z,976.26
2022-12-01T07:43:11.550Z,976.24
2022-12-01T07:44:11.530Z,976.20
2022-12-01T07:45:11.514Z,976.30
2022-12-01T07:46:12.868Z,976.25
2022-12-01T07:47:11.529Z,976.30
2022-12-01T07:48:11.478Z,976.26
2022-12-01T07:49:11.445Z,976.31
2022-12-01T07:50:11.426Z,976.27
2022-12-01T07:52:11.392Z,976.28
2022-12-01T07:53:11.372Z,976.32
2022-12-01T07:54:11.358Z,976.29
2022-12-01T07:55:11.341Z,976.27
2022-12-01T07:56:11.323Z,976.34
2022-12-01T07:57:11.302Z,976.28
2022-12-01T07:58:11.289Z,976.27
2022-12-01T07:59:11.280Z,976.29
2022-12-01T08:00:11.253Z,976.30
2022-12-01T08:01:11.322Z,976.31
2022-12-01T08:02:11.335Z,976.29
2022-12-01T08:03:11.311Z,976.30
2022-12-01T08:04:11.208Z,976.30
2022-12-01T08:05:11.163Z,976.28
2022-12-01T08:06:11.155Z,976.29
2022-12-01T08:07:11.130Z,976.33
2022-12-01T08:08:11.205Z,976.33
2022-12-01T08:09:11.095Z,976.32
2022-12-01T08:10:11.081Z,976.26
2022-12-01T08:11:11.065Z,976.34
2022-12-01T08:12:11.047Z,976.37
2022-12-01T08:13:17.007Z,976.29
2022-12-01T08:14:11.012Z,976.27
2022-12-01T08:15:10.991Z,976.25
2022-12-01T08:16:11.019Z,976.29
2022-12-01T08:17:10.958Z,976.26
2022-12-01T08:18:10.943Z,976.22
2022-12-01T08:19:11.125Z,976.29
2022-12-01T08:20:10.925Z,976.27
2022-12-01T08:21:10.886Z,976.27
2022-12-01T08:22:10.874Z,976.27
2022-12-01T08:23:10.853Z,976.27
2022-12-01T08:24:10.840Z,976.25
2022-12-01T08:25:10.818Z,976.36
2022-12-01T08:26:10.804Z,976.24
2022-12-01T08:27:10.784Z,976.22
2022-12-01T08:28:10.776Z,976.22
2022-12-01T08:29:13.553Z,976.20
2022-12-01T08:30:10.738Z,976.25
2022-12-01T08:31:10.886Z,976.25
2022-12-01T08:32:10.702Z,976.29
2022-12-01T08:33:10.681Z,976.24
2022-12-01T08:34:10.673Z,976.24
2022-12-01T08:35:10.660Z,976.20
2022-12-01T08:36:10.662Z,976.26
2022-12-01T08:37:10.717Z,976.27
2022-12-01T08:38:10.598Z,976.28
2022-12-01T08:39:10.579Z,976.29
2022-12-01T08:40:10.565Z,976.26
2022-12-01T08:41:10.546Z,976.27
2022-12-01T08:42:10.529Z,976.27
2022-12-01T08:43:28.261Z,976.25
2022-12-01T08:44:10.550Z,976.35
2022-12-01T08:45:10.475Z,976.31
2022-12-01T08:46:10.500Z,976.31
2022-12-01T08:47:14.303Z,976.31
2022-12-01T08:48:10.429Z,976.31
2022-12-01T08:49:10.409Z,976.30
2022-12-01T08:50:10.399Z,976.37
2022-12-01T08:51:10.372Z,976.29
2022-12-01T08:53:10.360Z,976.32
2022-12-01T08:54:10.321Z,976.32
2022-12-01T08:55:10.308Z,976.31
2022-12-01T08:56:10.291Z,976.39
2022-12-01T08:57:10.273Z,976.34
2022-12-01T08:58:10.252Z,976.36
2022-12-01T08:59:10.239Z,976.36
2022-12-01T09:00:10.219Z,976.37
2022-12-01T09:01:10.203Z,976.32
2022-12-01T09:02:10.270Z,976.37
2022-12-01T09:03:10.211Z,976.38
2022-12-01T09:04:10.151Z,976.39
2022-12-01T09:05:10.137Z,976.40
2022-12-01T09:06:10.119Z,976.41
2022-12-01T09:07:10.102Z,976.46
2022-12-01T09:08:10.146Z,976.35
2022-12-01T09:09:10.094Z,976.43
2022-12-01T09:10:10.057Z,976.43
2022-12-01T09:11:10.033Z,976.38
2022-12-01T09:12:10.015Z,976.39
2022-12-01T09:13:09.999Z,976.38
2022-12-01T09:14:09.980Z,976.37
2022-12-01T09:15:09.965Z,976.45
2022-12-01T09:16:10.015Z,976.43
2022-12-01T09:17:09.931Z,976.40
2022-12-01T09:18:09.914Z,976.43
2022-12-01T09:19:09.900Z,976.39
2022-12-01T09:20:09.885Z,976.44
2022-12-01T09:21:09.862Z,976.43
2022-12-01T09:22:09.846Z,976.45
2022-12-01T09:23:09.829Z,976.39
2022-12-01T09:24:09.809Z,976.42
2022-12-01T09:25:09.828Z,976.44
2022-12-01T09:26:13.573Z,976.43
2022-12-01T09:27:09.765Z,976.39
2022-12-01T09:28:09.741Z,976.39
2022-12-01T09:29:09.728Z,976.46
2022-12-01T09:30:09.757Z,976.49
2022-12-01T09:31:09.734Z,976.49
2022-12-01T09:32:09.673Z,976.45
2022-12-01T09:33:09.658Z,976.45
2022-12-01T09:34:09.640Z,976.48
2022-12-01T09:35:09.625Z,976.49
2022-12-01T09:36:09.606Z,976.47
2022-12-01T09:37:09.593Z,976.50
2022-12-01T09:38:09.571Z,976.43
2022-12-01T09:39:09.557Z,976.51
2022-12-01T09:40:09.537Z,976.45
2022-12-01T09:41:09.575Z,976.45
2022-12-01T09:42:09.633Z,976.44
2022-12-01T09:43:09.490Z,976.43
2022-12-01T09:44:09.471Z,976.44
2022-12-01T09:45:09.460Z,976.46
2022-12-01T09:46:09.435Z,976.42
2022-12-01T09:47:09.485Z,976.44
2022-12-01T09:48:09.402Z,976.47
2022-12-01T09:49:09.389Z,976.48
2022-12-01T09:50:09.383Z,976.50
2022-12-01T09:51:09.356Z,976.46
2022-12-01T09:52:09.335Z,976.43
2022-12-01T09:53:09.322Z,976.46
2022-12-01T09:54:09.302Z,976.48
2022-12-01T09:55:09.288Z,976.47
2022-12-01T09:56:12.925Z,976.47
2022-12-01T09:57:09.284Z,976.54
2022-12-01T09:58:09.236Z,976.47
2022-12-01T09:59:09.220Z,976.49
2022-12-01T10:00:09.201Z,976.47
2022-12-01T10:01:09.248Z,976.44
2022-12-01T10:02:09.200Z,976.45
2022-12-01T10:03:09.156Z,976.44
2022-12-01T10:04:09.134Z,976.43
2022-12-01T10:05:09.186Z,976.46
2022-12-01T10:07:09.087Z,976.40
2022-12-01T10:08:09.295Z,976.38
2022-12-01T10:09:09.055Z,976.38
2022-12-01T10:10:09.035Z,976.36
2022-12-01T10:11:09.019Z,976.39
2022-12-01T10:12:08.999Z,976.32
2022-12-01T10:13:09.011Z,976.34
2022-12-01T10:14:08.968Z,976.31
2022-12-01T10:15:08.952Z,976.29
2022-12-01T10:16:09.020Z,976.26
2022-12-01T10:17:08.923Z,976.28
2022-12-01T10:18:08.898Z,976.26
2022-12-01T10:19:08.884Z,976.28
2022-12-01T10:20:08.864Z,976.28
2022-12-01T10:21:08.851Z,976.25
2022-12-01T10:22:08.831Z,976.26
2022-12-01T10:23:08.818Z,976.24
2022-12-01T10:24:08.796Z,976.32
2022-12-01T10:25:08.782Z,976.20
2022-12-01T10:26:08.767Z,976.20
2022-12-01T10:27:08.749Z,976.18
2022-12-01T10:28:08.731Z,976.15
2022-12-01T10:29:08.739Z,976.13
2022-12-01T10:30:08.697Z,976.11
2022-12-01T10:31:08.756Z,976.12
2022-12-01T10:32:08.666Z,976.09
2022-12-01T10:33:08.649Z,976.10
2022-12-01T10:34:08.629Z,976.05
2022-12-01T10:35:08.634Z,976.04
2022-12-01T10:36:08.596Z,976.08
2022-12-01T10:37:08.582Z,976.06
2022-12-01T10:38:08.580Z,976.06
2022-12-01T10:39:08.549Z,976.02
2022-12-01T10:40:08.530Z,976.02
2022-12-01T10:41:08.519Z,976.02
2022-12-01T10:42:08.496Z,976.03
2022-12-01T10:43:08.484Z,975.99
2022-12-01T10:44:08.461Z,976.03
2022-12-01T10:45:08.484Z,976.00
2022-12-01T10:46:08.491Z,976.03
2022-12-01T10:47:08.416Z,976.02
2022-12-01T10:48:08.404Z,975.96
2022-12-01T10:49:08.381Z,975.99
2022-12-01T10:50:08.362Z,975.98
2022-12-01T10:51:08.348Z,975.94
2022-12-01T10:52:08.336Z,975.95
2022-12-01T10:53:08.314Z,975.95
2022-12-01T10:54:08.296Z,975.99
2022-12-01T10:55:08.282Z,975.96
2022-12-01T10:56:08.262Z,976.02
2022-12-01T10:57:08.248Z,975.92
2022-12-01T10:58:09.545Z,975.97
2022-12-01T10:59:08.215Z,976.01
2022-12-01T11:00:08.197Z,975.98
2022-12-01T11:01:08.324Z,975.96
2022-12-01T11:02:08.345Z,975.95
2022-12-01T11:03:08.471Z,976.00
2022-12-01T11:04:08.133Z,975.89
2022-12-01T11:05:08.115Z,975.92
2022-12-01T11:06:08.098Z,975.96
2022-12-01T11:07:08.084Z,975.93
2022-12-01T11:08:08.095Z,975.96
2022-12-01T11:09:08.048Z,976.00
2022-12-01T11:10:08.029Z,975.92
2022-12-01T11:11:08.016Z,975.92
2022-12-01T11:12:07.996Z,975.96
2022-12-01T11:13:07.982Z,975.99
2022-12-01T11:14:08.068Z,975.94
2022-12-01T11:15:07.948Z,975.92
2022-12-01T11:16:07.952Z,975.88
2022-12-01T11:17:07.935Z,975.90
2022-12-01T11:18:07.897Z,975.91
2022-12-01T11:19:07.912Z,975.89
2022-12-01T11:20:07.907Z,975.90
2022-12-01T11:21:07.848Z,975.86
2022-12-01T11:22:07.828Z,975.91
2022-12-01T11:23:07.814Z,975.88
2022-12-01T11:24:07.797Z,975.91
2022-12-01T11:25:07.780Z,975.88
2022-12-01T11:26:07.760Z,975.87
2022-12-01T11:27:07.746Z,975.90
2022-12-01T11:28:07.730Z,975.90
2022-12-01T11:29:07.711Z,975.86
2022-12-01T11:30:07.697Z,975.91
2022-12-01T11:31:07.678Z,975.84
2022-12-01T11:32:07.739Z,975.87
2022-12-01T11:33:07.760Z,975.89
2022-12-01T11:34:07.629Z,975.88
2022-12-01T11:35:07.623Z,975.94
2022-12-01T11:36:11.740Z,975.87
2022-12-01T11:37:07.578Z,975.85
2022-12-01T11:38:29.147Z,975.86
2022-12-01T11:39:07.543Z,975.85
2022-12-01T11:40:07.529Z,975.94
2022-12-01T11:41:07.508Z,975.86
2022-12-01T11:42:07.494Z,975.90
2022-12-01T11:43:07.475Z,975.89
2022-12-01T11:44:22.375Z,975.87
2022-12-01T11:45:07.442Z,975.87
2022-12-01T11:46:07.648Z,975.83
2022-12-01T11:47:22.290Z,975.84
2022-12-01T11:48:07.401Z,975.89
2022-12-01T11:49:07.422Z,975.83
2022-12-01T11:50:07.565Z,975.80
2022-12-01T11:51:07.393Z,975.85
2022-12-01T11:52:07.328Z,975.79
2022-12-01T11:53:07.307Z,975.79
2022-12-01T11:54:07.295Z,975.81
2022-12-01T11:55:10.132Z,975.76
2022-12-01T11:56:07.261Z,975.80
2022-12-01T11:57:32.595Z,975.80
2022-12-01T11:58:07.226Z,975.81
2022-12-01T11:59:07.205Z,975.79
2022-12-01T12:00:07.192Z,975.82
2022-12-01T12:01:07.172Z,975.76
2022-12-01T12:02:07.206Z,975.78
2022-12-01T12:03:07.200Z,975.78
2022-12-01T12:04:07.124Z,975.74
2022-12-01T12:05:07.148Z,975.80
2022-12-01T12:06:32.302Z,975.77
2022-12-01T12:07:07.071Z,975.79
2022-12-01T12:08:07.136Z,975.72
2022-12-01T12:09:07.058Z,975.81
2022-12-01T12:10:07.023Z,975.78
2022-12-01T12:11:07.033Z,975.79
2022-12-01T12:12:06.990Z,975.82
2022-12-01T12:13:06.971Z,975.84
2022-12-01T12:14:06.954Z,975.82
2022-12-01T12:15:06.935Z,975.83
2022-12-01T12:16:06.923Z,975.78
2022-12-01T12:17:06.902Z,975.83
2022-12-01T12:18:06.962Z,975.81
2022-12-01T12:19:07.113Z,975.78
2022-12-01T12:20:08.677Z,975.80
2022-12-01T12:21:06.857Z,975.80
2022-12-01T12:22:06.823Z,975.86
2022-12-01T12:23:06.800Z,975.84
2022-12-01T12:24:06.787Z,975.80
2022-12-01T12:25:06.766Z,975.82
2022-12-01T12:26:06.752Z,975.83
2022-12-01T12:27:06.733Z,975.78
2022-12-01T12:28:06.719Z,975.80
2022-12-01T12:29:12.235Z,975.75
2022-12-01T12:30:06.685Z,975.75
2022-12-01T12:31:06.707Z,975.72
2022-12-01T12:32:06.667Z,975.71
2022-12-01T12:33:06.633Z,975.70
2022-12-01T12:34:06.617Z,975.72